Decoded Metar for UUYY (SYKTYVKAR in RUSSIA) (IATA:SCW) | Meteo·Mobile Aviation Weather
aviador You're here:

UUYY Decoded Metar

SYKTYVKAR in RUSSIA
Report Time2018-12-19 05:30:00
UTC Time2018-12-19 05:51:04
Flight Rules ifr IFR
Wind170° at 2 kt
W.Decomp.*RWY 19: 1.6 kt HW 1.2 kt LCW
W.Rank170° ranks 9
Current wind is below 170° avg. (7.4)
Visibility9999 m
Phenomena:Light Snow
Clouds:Overcast 009 Hf
Expected CloudBase > 400 ft AGL from Temp-Dew spread
Ceiling900 ft
Temp-13°C (ISA -27)
Dew Point-14°C (92% RH)
AAT-17.0°C
QNH1038 hPa
Density Alt-3,862 ft
Elevation390 ft
Report Wrong Elevation
Raw Report
METAR UUYY 190530Z 17001MPS 9999 -SN OVC009 M13/M14 Q1038 R18/450249
NOSIG RMK QFE770/1026=

Extra information for UUYY:More info

Metar Taf Metar & Taf Last 4 Metars F.Rules Stats Wind Profile Meteogram Temp Stats Airport Information Weather charts Add Link Nearby VenuesMetar ALERT Operation Metar Decoded Social comments